Time,TemperatureF,DewpointF,PressureIn,WindDirection,WindDirectionDegrees,WindSpeedMPH,WindSpeedGustMPH,Humidity,HourlyPrecipIn,Conditions,Clouds,dailyrainin,SoftwareType,DateUTC
2013-09-12 00:14:00,79.0,73.0,29.96,SSW,205,0.0,-999.0,82,-99.99,,,-99.99,,2013-09-12 04:14:00,
2013-09-12 00:24:00,79.0,73.0,29.96,South,172,0.0,-999.0,83,-99.99,,,-99.99,,2013-09-12 04:24:00,
2013-09-12 00:44:00,78.0,72.0,29.96,South,172,0.0,-999.0,83,-99.99,,,-99.99,,2013-09-12 04:44:00,
2013-09-12 00:54:00,78.0,73.0,29.96,South,172,0.0,-999.0,84,-99.99,,,-99.99,,2013-09-12 04:54:00,
2013-09-12 01:23:00,78.0,73.0,29.95,South,188,0.0,-999.0,85,-99.99,,,-99.99,,2013-09-12 05:23:00,
2013-09-12 01:53:00,77.0,72.0,29.94,South,191,0.0,-999.0,86,-99.99,,,-99.99,,2013-09-12 05:53:00,
2013-09-12 02:12:00,77.0,72.0,29.94,South,180,0.0,-999.0,86,-99.99,,,-99.99,,2013-09-12 06:12:00,
2013-09-12 02:22:00,76.0,72.0,29.93,South,180,0.0,-999.0,87,-99.99,,,-99.99,,2013-09-12 06:22:00,
2013-09-12 02:52:00,76.0,72.0,29.92,South,188,0.0,-999.0,87,-99.99,,,-99.99,,2013-09-12 06:52:00,
2013-09-12 03:12:00,76.0,72.0,29.92,South,175,0.0,-999.0,88,-99.99,,,-99.99,,2013-09-12 07:12:00,
2013-09-12 03:22:00,76.0,72.0,29.92,South,178,0.0,-999.0,87,-99.99,,,-99.99,,2013-09-12 07:22:00,
2013-09-12 03:52:00,76.0,72.0,29.91,South,182,0.0,-999.0,87,-99.99,,,-99.99,,2013-09-12 07:52:00,
2013-09-12 04:11:00,76.0,72.0,29.91,SSW,195,0.0,-999.0,87,-99.99,,,-99.99,,2013-09-12 08:11:00,
2013-09-12 04:22:00,75.0,71.0,29.91,SSE,148,0.0,-999.0,87,-99.99,,,-99.99,,2013-09-12 08:22:00,
2013-09-12 04:52:00,75.0,72.0,29.91,SSE,148,0.0,-999.0,89,-99.99,,,-99.99,,2013-09-12 08:52:00,
2013-09-12 05:12:00,74.0,71.0,29.91,SSE,148,0.0,-999.0,89,-99.99,,,-99.99,,2013-09-12 09:12:00,
2013-09-12 05:21:00,74.0,71.0,29.90,SSE,148,0.0,-999.0,90,-99.99,,,-99.99,,2013-09-12 09:21:00,
2013-09-12 05:53:00,73.0,70.0,29.90,SSE,148,0.0,-999.0,91,-99.99,,,-99.99,,2013-09-12 09:53:00,
2013-09-12 06:12:00,73.0,71.0,29.91,SSE,148,0.0,-999.0,92,-99.99,,,-99.99,,2013-09-12 10:12:00,
2013-09-12 06:23:00,72.0,70.0,29.91,SSE,148,0.0,-999.0,93,-99.99,,,-99.99,,2013-09-12 10:23:00,
2013-09-12 06:53:00,72.0,70.0,29.91,SSE,148,0.0,-999.0,93,-99.99,,,-99.99,,2013-09-12 10:53:00,
2013-09-12 07:11:00,72.0,70.0,29.91,SSE,148,0.0,-999.0,93,-99.99,,,-99.99,,2013-09-12 11:11:00,
2013-09-12 07:22:00,72.0,70.0,29.91,SSE,148,0.0,-999.0,93,-99.99,,,-99.99,,2013-09-12 11:22:00,
2013-09-12 07:52:00,73.0,71.0,29.91,SSE,165,0.0,-999.0,92,-99.99,,,-99.99,,2013-09-12 11:52:00,
2013-09-12 08:12:00,74.0,71.0,29.91,South,179,0.0,-999.0,91,-99.99,,,-99.99,,2013-09-12 12:12:00,
2013-09-12 08:22:00,75.0,72.0,29.91,SSE,148,0.0,-999.0,90,-99.99,,,-99.99,,2013-09-12 12:22:00,
2013-09-12 08:52:00,76.0,72.0,29.90,SE,141,0.0,-999.0,88,-99.99,,,-99.99,,2013-09-12 12:52:00,
2013-09-12 09:11:00,76.0,72.0,29.89,South,180,0.0,-999.0,87,-99.99,,,-99.99,,2013-09-12 13:11:00,
2013-09-12 09:22:00,77.0,72.0,29.88,SSW,198,0.0,-999.0,86,-99.99,,,-99.99,,2013-09-12 13:22:00,
2013-09-12 09:52:00,78.0,72.0,29.88,SSE,153,0.0,-999.0,83,-99.99,,,-99.99,,2013-09-12 13:52:00,
2013-09-12 10:22:00,82.0,74.0,29.88,South,169,1.0,-999.0,77,-99.99,,,-99.99,,2013-09-12 14:22:00,
2013-09-12 10:52:00,86.0,75.0,29.88,ESE,111,1.0,-999.0,71,-99.99,,,-99.99,,2013-09-12 14:52:00,
2013-09-12 11:11:00,85.0,75.0,29.87,SSE,156,0.0,-999.0,72,-99.99,,,-99.99,,2013-09-12 15:11:00,
2013-09-12 11:22:00,86.0,75.0,29.86,South,187,1.0,-999.0,69,-99.99,,,-99.99,,2013-09-12 15:22:00,
2013-09-12 11:53:00,89.0,76.0,29.85,SSE,167,1.0,-999.0,66,-99.99,,,-99.99,,2013-09-12 15:53:00,
2013-09-12 12:23:00,91.0,76.0,29.84,South,185,1.0,-999.0,62,-99.99,,,-99.99,,2013-09-12 16:23:00,
2013-09-12 12:43:00,91.0,76.0,29.83,SE,132,0.0,-999.0,62,-99.99,,,-99.99,,2013-09-12 16:43:00,
2013-09-12 12:53:00,92.0,77.0,29.83,ESE,109,1.0,-999.0,62,-99.99,,,-99.99,,2013-09-12 16:53:00,
2013-09-12 13:12:00,93.0,77.0,29.82,SSE,148,1.0,-999.0,60,-99.99,,,-99.99,,2013-09-12 17:12:00,
2013-09-12 13:23:00,93.0,76.0,29.80,South,169,2.0,-999.0,58,-99.99,,,-99.99,,2013-09-12 17:23:00,
2013-09-12 13:53:00,92.0,76.0,29.80,ESE,123,1.0,-999.0,60,-99.99,,,-99.99,,2013-09-12 17:53:00,
2013-09-12 14:12:00,88.0,72.0,29.81,NNW,342,2.0,-999.0,60,-99.99,,,-99.99,,2013-09-12 18:12:00,
2013-09-12 14:52:00,71.0,69.0,29.80,SSE,155,1.0,-999.0,94,-99.99,,,-99.99,,2013-09-12 18:52:00,
2013-09-12 15:12:00,71.0,70.0,29.78,SE,141,1.0,-999.0,97,-99.99,,,-99.99,,2013-09-12 19:12:00,
2013-09-12 15:22:00,71.0,70.0,29.77,SSW,203,1.0,-999.0,98,-99.99,,,-99.99,,2013-09-12 19:22:00,
2013-09-12 15:52:00,72.0,72.0,29.75,SSW,213,0.0,-999.0,99,-99.99,,,-99.99,,2013-09-12 19:52:00,
2013-09-12 16:12:00,71.0,70.0,29.74,ESE,117,0.0,-999.0,98,-99.99,,,-99.99,,2013-09-12 20:12:00,
2013-09-12 16:22:00,72.0,72.0,29.72,ESE,117,0.0,-999.0,99,-99.99,,,-99.99,,2013-09-12 20:22:00,
2013-09-12 16:52:00,73.0,73.0,29.72,ESE,117,0.0,-999.0,99,-99.99,,,-99.99,,2013-09-12 20:52:00,
2013-09-12 17:22:00,73.0,73.0,29.74,ESE,123,0.0,-999.0,99,-99.99,,,-99.99,,2013-09-12 21:22:00,
2013-09-12 17:54:00,73.0,73.0,29.75,SE,133,0.0,-999.0,99,-99.99,,,-99.99,,2013-09-12 21:54:00,
2013-09-12 18:13:00,72.0,72.0,29.75,SE,133,0.0,-999.0,99,-99.99,,,-99.99,,2013-09-12 22:13:00,
2013-09-12 18:24:00,71.0,71.0,29.74,SE,142,1.0,-999.0,99,-99.99,,,-99.99,,2013-09-12 22:24:00,
2013-09-12 18:54:00,71.0,71.0,29.72,SE,142,0.0,-999.0,99,-99.99,,,-99.99,,2013-09-12 22:54:00,
2013-09-12 19:12:00,71.0,71.0,29.74,NNW,342,0.0,-999.0,99,-99.99,,,-99.99,,2013-09-12 23:12:00,
2013-09-12 19:23:00,71.0,71.0,29.75,NNW,342,0.0,-999.0,100,-99.99,,,-99.99,,2013-09-12 23:23:00,
2013-09-12 19:52:00,71.0,71.0,29.73,NNW,343,0.0,-999.0,100,-99.99,,,-99.99,,2013-09-12 23:52:00,
2013-09-12 20:11:00,71.0,71.0,29.72,NNW,343,0.0,-999.0,100,-99.99,,,-99.99,,2013-09-13 00:11:00,
2013-09-12 20:22:00,71.0,71.0,29.71,SW,221,0.0,-999.0,100,-99.99,,,-99.99,,2013-09-13 00:22:00,
2013-09-12 20:42:00,71.0,71.0,29.71,SW,221,0.0,-999.0,100,-99.99,,,-99.99,,2013-09-13 00:42:00,
2013-09-12 20:52:00,70.0,70.0,29.71,SW,221,0.0,-999.0,100,-99.99,,,-99.99,,2013-09-13 00:52:00,
2013-09-12 21:11:00,70.0,70.0,29.72,SW,221,0.0,-999.0,100,-99.99,,,-99.99,,2013-09-13 01:11:00,
2013-09-12 21:22:00,70.0,70.0,29.72,SW,221,0.0,-999.0,100,-99.99,,,-99.99,,2013-09-13 01:22:00,
2013-09-12 21:42:00,70.0,70.0,29.73,SW,221,0.0,-999.0,100,-99.99,,,-99.99,,2013-09-13 01:42:00,
2013-09-12 21:52:00,70.0,70.0,29.74,SW,221,0.0,-999.0,100,-99.99,,,-99.99,,2013-09-13 01:52:00,
2013-09-12 22:12:00,70.0,70.0,29.73,SW,221,0.0,-999.0,100,-99.99,,,-99.99,,2013-09-13 02:12:00,
2013-09-12 22:22:00,70.0,70.0,29.73,SW,221,0.0,-999.0,100,-99.99,,,-99.99,,2013-09-13 02:22:00,
2013-09-12 22:43:00,70.0,70.0,29.72,SW,220,0.0,-999.0,100,-99.99,,,-99.99,,2013-09-13 02:43:00,
2013-09-12 22:53:00,69.0,69.0,29.73,SW,221,0.0,-999.0,100,-99.99,,,-99.99,,2013-09-13 02:53:00,
2013-09-12 23:12:00,69.0,69.0,29.72,SW,221,0.0,-999.0,100,-99.99,,,-99.99,,2013-09-13 03:12:00,
2013-09-12 23:22:00,69.0,69.0,29.71,SW,219,0.0,-999.0,100,-99.99,,,-99.99,,2013-09-13 03:22:00,
2013-09-12 23:55:00,70.0,70.0,29.71,SW,219,0.0,-999.0,100,-99.99,,,-99.99,,2013-09-13 03:55:00,